sensor_id;sensor_type;location;lat;lon;timestamp;pressure;altitude;pressure_sealevel;temperature;humidity
14120;BME280;7138;49.246;9.100;2022-09-09T00:00:59;98315.38;;;18.09;91.77
14120;BME280;7138;49.246;9.100;2022-09-09T00:03:40;98297.84;;;18.11;91.72
14120;BME280;7138;49.246;9.100;2022-09-09T00:06:21;98299.56;;;18.12;91.68
14120;BME280;7138;49.246;9.100;2022-09-09T00:09:01;98299.50;;;18.13;91.20
14120;BME280;7138;49.246;9.100;2022-09-09T00:11:36;98306.44;;;18.14;90.98
14120;BME280;7138;49.246;9.100;2022-09-09T00:14:14;98306.38;;;18.16;91.10
14120;BME280;7138;49.246;9.100;2022-09-09T00:16:50;98301.31;;;18.11;91.76
14120;BME280;7138;49.246;9.100;2022-09-09T00:19:23;98299.59;;;18.10;91.44
14120;BME280;7138;49.246;9.100;2022-09-09T00:22:04;98304.72;;;18.13;91.16
14120;BME280;7138;49.246;9.100;2022-09-09T00:24:44;98302.06;;;18.15;91.23
14120;BME280;7138;49.246;9.100;2022-09-09T00:27:30;98292.41;;;18.15;90.72
14120;BME280;7138;49.246;9.100;2022-09-09T00:30:12;98268.44;;;18.04;90.81
14120;BME280;7138;49.246;9.100;2022-09-09T00:32:38;98283.88;;;18.12;90.62
14120;BME280;7138;49.246;9.100;2022-09-09T00:35:17;98302.09;;;18.13;90.34
14120;BME280;7138;49.246;9.100;2022-09-09T00:37:46;98293.75;;;18.03;90.34
14120;BME280;7138;49.246;9.100;2022-09-09T00:40:26;98296.00;;;18.13;90.34
14120;BME280;7138;49.246;9.100;2022-09-09T00:43:15;98295.84;;;18.17;90.09
14120;BME280;7138;49.246;9.100;2022-09-09T00:46:21;98299.38;;;18.16;89.82
14120;BME280;7138;49.246;9.100;2022-09-09T00:49:01;98303.00;;;18.12;89.84
14120;BME280;7138;49.246;9.100;2022-09-09T00:51:45;98306.44;;;18.14;89.62
14120;BME280;7138;49.246;9.100;2022-09-09T00:54:30;98308.19;;;18.14;89.82
14120;BME280;7138;49.246;9.100;2022-09-09T00:57:14;98315.06;;;18.16;89.89
14120;BME280;7138;49.246;9.100;2022-09-09T00:59:48;98310.59;;;18.20;90.00
14120;BME280;7138;49.246;9.100;2022-09-09T01:02:27;98319.97;;;18.25;90.11
14120;BME280;7138;49.246;9.100;2022-09-09T01:05:05;98317.25;;;18.28;90.17
14120;BME280;7138;49.246;9.100;2022-09-09T01:07:32;98311.88;;;18.31;90.09
14120;BME280;7138;49.246;9.100;2022-09-09T01:10:01;98309.16;;;18.34;90.22
14120;BME280;7138;49.246;9.100;2022-09-09T01:12:39;98309.03;;;18.37;90.00
14120;BME280;7138;49.246;9.100;2022-09-09T01:15:12;98308.19;;;18.37;90.33
14120;BME280;7138;49.246;9.100;2022-09-09T01:17:53;98305.75;;;18.32;91.13
14120;BME280;7138;49.246;9.100;2022-09-09T01:20:25;98308.47;;;18.29;91.32
14120;BME280;7138;49.246;9.100;2022-09-09T01:23:16;98306.88;;;18.25;90.84
14120;BME280;7138;49.246;9.100;2022-09-09T01:26:23;98312.13;;;18.25;90.91
14120;BME280;7138;49.246;9.100;2022-09-09T01:28:52;98302.78;;;18.18;90.95
14120;BME280;7138;49.246;9.100;2022-09-09T01:31:22;98309.56;;;18.24;90.97
14120;BME280;7138;49.246;9.100;2022-09-09T01:33:50;98309.38;;;18.28;90.48
14120;BME280;7138;49.246;9.100;2022-09-09T01:36:25;98309.28;;;18.31;90.34
14120;BME280;7138;49.246;9.100;2022-09-09T01:38:52;98307.41;;;18.35;90.54
14120;BME280;7138;49.246;9.100;2022-09-09T01:41:20;98309.00;;;18.39;90.94
14120;BME280;7138;49.246;9.100;2022-09-09T01:43:47;98319.38;;;18.40;90.78
14120;BME280;7138;49.246;9.100;2022-09-09T01:46:13;98317.66;;;18.39;90.47
14120;BME280;7138;49.246;9.100;2022-09-09T01:48:41;98293.44;;;18.34;90.14
14120;BME280;7138;49.246;9.100;2022-09-09T01:51:08;98314.00;;;18.45;89.83
14120;BME280;7138;49.246;9.100;2022-09-09T01:53:34;98312.19;;;18.45;89.82
14120;BME280;7138;49.246;9.100;2022-09-09T01:56:11;98314.69;;;18.48;89.67
14120;BME280;7138;49.246;9.100;2022-09-09T01:58:54;98317.41;;;18.47;90.21
14120;BME280;7138;49.246;9.100;2022-09-09T02:01:44;98314.78;;;18.47;90.31
14120;BME280;7138;49.246;9.100;2022-09-09T02:04:34;98313.06;;;18.46;89.90
14120;BME280;7138;49.246;9.100;2022-09-09T02:07:01;98307.09;;;18.42;89.52
14120;BME280;7138;49.246;9.100;2022-09-09T02:09:30;98306.97;;;18.45;89.82
14120;BME280;7138;49.246;9.100;2022-09-09T02:12:02;98300.03;;;18.44;89.66
14120;BME280;7138;49.246;9.100;2022-09-09T02:14:40;98307.91;;;18.44;89.59
14120;BME280;7138;49.246;9.100;2022-09-09T02:17:10;98314.03;;;18.43;89.61
14120;BME280;7138;49.246;9.100;2022-09-09T02:19:44;98310.50;;;18.44;89.93
14120;BME280;7138;49.246;9.100;2022-09-09T02:22:12;98320.13;;;18.44;89.95
14120;BME280;7138;49.246;9.100;2022-09-09T02:24:40;98308.75;;;18.45;89.92
14120;BME280;7138;49.246;9.100;2022-09-09T02:27:09;98305.16;;;18.47;89.35
14120;BME280;7138;49.246;9.100;2022-09-09T02:29:41;98301.03;;;18.42;89.51
14120;BME280;7138;49.246;9.100;2022-09-09T02:32:14;98307.19;;;18.39;90.07
14120;BME280;7138;49.246;9.100;2022-09-09T02:34:46;98301.97;;;18.39;90.73
14120;BME280;7138;49.246;9.100;2022-09-09T02:37:18;98305.41;;;18.41;91.16
14120;BME280;7138;49.246;9.100;2022-09-09T02:39:46;98305.41;;;18.41;91.10
14120;BME280;7138;49.246;9.100;2022-09-09T02:42:13;98304.47;;;18.42;91.14
14120;BME280;7138;49.246;9.100;2022-09-09T02:44:42;98301.97;;;18.39;91.52
14120;BME280;7138;49.246;9.100;2022-09-09T02:47:25;98303.75;;;18.39;92.39
14120;BME280;7138;49.246;9.100;2022-09-09T02:50:09;98299.66;;;18.32;92.11
14120;BME280;7138;49.246;9.100;2022-09-09T02:52:57;98290.94;;;18.31;92.31
14120;BME280;7138;49.246;9.100;2022-09-09T02:55:38;98290.38;;;18.23;92.49
14120;BME280;7138;49.246;9.100;2022-09-09T02:58:08;98286.13;;;18.21;92.62
14120;BME280;7138;49.246;9.100;2022-09-09T03:00:39;98281.72;;;18.21;92.76
14120;BME280;7138;49.246;9.100;2022-09-09T03:03:06;98283.56;;;18.19;92.79
14120;BME280;7138;49.246;9.100;2022-09-09T03:05:32;98280.94;;;18.19;92.83
14120;BME280;7138;49.246;9.100;2022-09-09T03:07:58;98287.06;;;18.18;93.38
14120;BME280;7138;49.246;9.100;2022-09-09T03:10:24;98289.53;;;18.23;92.79
14120;BME280;7138;49.246;9.100;2022-09-09T03:12:50;98286.25;;;18.18;93.29
14120;BME280;7138;49.246;9.100;2022-09-09T03:15:16;98290.63;;;18.17;93.67
14120;BME280;7138;49.246;9.100;2022-09-09T03:17:44;98286.28;;;18.16;93.53
14120;BME280;7138;49.246;9.100;2022-09-09T03:20:10;98286.38;;;18.15;93.59
14120;BME280;7138;49.246;9.100;2022-09-09T03:22:36;98275.91;;;18.15;93.75
14120;BME280;7138;49.246;9.100;2022-09-09T03:25:02;98263.13;;;18.06;96.26
14120;BME280;7138;49.246;9.100;2022-09-09T03:27:28;98280.38;;;18.11;97.06
14120;BME280;7138;49.246;9.100;2022-09-09T03:29:54;98289.03;;;18.13;95.86
14120;BME280;7138;49.246;9.100;2022-09-09T03:32:22;98281.97;;;18.15;95.63
14120;BME280;7138;49.246;9.100;2022-09-09T03:34:49;98280.16;;;18.17;95.23
14120;BME280;7138;49.246;9.100;2022-09-09T03:37:15;98287.06;;;18.18;95.38
14120;BME280;7138;49.246;9.100;2022-09-09T03:39:41;98288.88;;;18.18;95.13
14120;BME280;7138;49.246;9.100;2022-09-09T03:42:07;98280.94;;;18.19;95.44
14120;BME280;7138;49.246;9.100;2022-09-09T03:44:33;98281.91;;;18.17;95.18
14120;BME280;7138;49.246;9.100;2022-09-09T03:46:58;98280.38;;;18.11;95.16
14120;BME280;7138;49.246;9.100;2022-09-09T03:49:26;98278.56;;;18.13;95.20
14120;BME280;7138;49.246;9.100;2022-09-09T03:51:55;98279.41;;;18.14;95.23
14120;BME280;7138;49.246;9.100;2022-09-09T03:54:22;98281.97;;;18.15;94.71
14120;BME280;7138;49.246;9.100;2022-09-09T03:56:48;98279.22;;;18.18;94.90
14120;BME280;7138;49.246;9.100;2022-09-09T03:59:14;98278.31;;;18.19;94.75
14120;BME280;7138;49.246;9.100;2022-09-09T04:01:40;98280.91;;;18.21;94.72
14120;BME280;7138;49.246;9.100;2022-09-09T04:04:06;98281.69;;;18.23;95.07
14120;BME280;7138;49.246;9.100;2022-09-09T04:06:33;98282.81;;;18.16;94.59
14120;BME280;7138;49.246;9.100;2022-09-09T04:09:00;98300.75;;;18.26;94.59
14120;BME280;7138;49.246;9.100;2022-09-09T04:11:28;98290.28;;;18.26;94.80
14120;BME280;7138;49.246;9.100;2022-09-09T04:13:54;98291.06;;;18.28;94.75
14120;BME280;7138;49.246;9.100;2022-09-09T04:16:20;98299.78;;;18.29;94.52
14120;BME280;7138;49.246;9.100;2022-09-09T04:18:46;98301.50;;;18.30;94.17
14120;BME280;7138;49.246;9.100;2022-09-09T04:21:12;98304.16;;;18.28;94.33
14120;BME280;7138;49.246;9.100;2022-09-09T04:23:39;98312.06;;;18.27;94.27
14120;BME280;7138;49.246;9.100;2022-09-09T04:26:06;98300.78;;;18.25;94.40
14120;BME280;7138;49.246;9.100;2022-09-09T04:28:35;98305.97;;;18.26;94.36
14120;BME280;7138;49.246;9.100;2022-09-09T04:31:06;98306.84;;;18.27;94.24
14120;BME280;7138;49.246;9.100;2022-09-09T04:33:32;98303.28;;;18.28;93.58
14120;BME280;7138;49.246;9.100;2022-09-09T04:35:57;98310.25;;;18.29;93.78
14120;BME280;7138;49.246;9.100;2022-09-09T04:38:29;98305.97;;;18.26;94.03
14120;BME280;7138;49.246;9.100;2022-09-09T04:40:55;98306.09;;;18.23;94.11
14120;BME280;7138;49.246;9.100;2022-09-09T04:43:23;98314.72;;;18.25;95.04
14120;BME280;7138;49.246;9.100;2022-09-09T04:45:52;98322.59;;;18.25;95.03
14120;BME280;7138;49.246;9.100;2022-09-09T04:48:19;98317.31;;;18.27;95.05
14120;BME280;7138;49.246;9.100;2022-09-09T04:50:55;98322.47;;;18.28;95.48
14120;BME280;7138;49.246;9.100;2022-09-09T04:53:21;98325.28;;;18.24;95.50
14120;BME280;7138;49.246;9.100;2022-09-09T04:55:48;98327.16;;;18.20;94.92
14120;BME280;7138;49.246;9.100;2022-09-09T04:58:15;98322.03;;;18.17;94.50
14120;BME280;7138;49.246;9.100;2022-09-09T05:00:42;98327.31;;;18.16;94.63
14120;BME280;7138;49.246;9.100;2022-09-09T05:03:08;98336.91;;;18.15;94.76
14120;BME280;7138;49.246;9.100;2022-09-09T05:05:35;98336.13;;;18.13;94.27
14120;BME280;7138;49.246;9.100;2022-09-09T05:08:02;98332.63;;;18.14;94.51
14120;BME280;7138;49.246;9.100;2022-09-09T05:10:28;98337.97;;;18.11;94.50
14120;BME280;7138;49.246;9.100;2022-09-09T05:12:54;98338.75;;;18.13;94.92
14120;BME280;7138;49.246;9.100;2022-09-09T05:15:20;98338.72;;;18.15;95.15
14120;BME280;7138;49.246;9.100;2022-09-09T05:17:50;98334.47;;;18.11;95.88
14120;BME280;7138;49.246;9.100;2022-09-09T05:20:18;98340.38;;;18.16;96.07
14120;BME280;7138;49.246;9.100;2022-09-09T05:22:44;98345.59;;;18.17;95.96
14120;BME280;7138;49.246;9.100;2022-09-09T05:25:10;98346.38;;;18.19;96.63
14120;BME280;7138;49.246;9.100;2022-09-09T05:27:36;98323.31;;;18.06;96.88
14120;BME280;7138;49.246;9.100;2022-09-09T05:30:04;98348.09;;;18.20;97.14
14120;BME280;7138;49.246;9.100;2022-09-09T05:32:30;98349.66;;;18.24;97.15
14120;BME280;7138;49.246;9.100;2022-09-09T05:35:00;98356.63;;;18.25;97.15
14120;BME280;7138;49.246;9.100;2022-09-09T05:37:27;98354.00;;;18.25;97.05
14120;BME280;7138;49.246;9.100;2022-09-09T05:39:52;98353.13;;;18.25;97.09
14120;BME280;7138;49.246;9.100;2022-09-09T05:42:18;98349.72;;;18.23;97.42
14120;BME280;7138;49.246;9.100;2022-09-09T05:44:44;98358.38;;;18.25;97.51
14120;BME280;7138;49.246;9.100;2022-09-09T05:47:10;98363.56;;;18.26;97.05
14120;BME280;7138;49.246;9.100;2022-09-09T05:49:37;98358.56;;;18.20;97.67
14120;BME280;7138;49.246;9.100;2022-09-09T05:52:04;98357.63;;;18.21;97.67
14120;BME280;7138;49.246;9.100;2022-09-09T05:54:30;98360.25;;;18.21;97.60
14120;BME280;7138;49.246;9.100;2022-09-09T05:56:56;98367.09;;;18.25;97.92
14120;BME280;7138;49.246;9.100;2022-09-09T05:59:22;98363.47;;;18.29;98.14
14120;BME280;7138;49.246;9.100;2022-09-09T06:01:49;98365.03;;;18.33;97.76
14120;BME280;7138;49.246;9.100;2022-09-09T06:04:15;98359.69;;;18.36;97.73
14120;BME280;7138;49.246;9.100;2022-09-09T06:06:41;98363.91;;;18.40;97.62
14120;BME280;7138;49.246;9.100;2022-09-09T06:09:09;98367.00;;;18.51;97.42
14120;BME280;7138;49.246;9.100;2022-09-09T06:11:37;98360.97;;;18.49;96.01
14120;BME280;7138;49.246;9.100;2022-09-09T06:14:05;98368.31;;;18.63;96.42
14120;BME280;7138;49.246;9.100;2022-09-09T06:16:32;98369.75;;;18.70;96.03
14120;BME280;7138;49.246;9.100;2022-09-09T06:18:59;98367.75;;;18.77;94.99
14120;BME280;7138;49.246;9.100;2022-09-09T06:21:27;98361.63;;;18.78;95.89
14120;BME280;7138;49.246;9.100;2022-09-09T06:23:54;98368.44;;;18.82;96.30
14120;BME280;7138;49.246;9.100;2022-09-09T06:26:23;98371.75;;;18.87;96.07
14120;BME280;7138;49.246;9.100;2022-09-09T06:28:52;98368.25;;;18.86;96.07
14120;BME280;7138;49.246;9.100;2022-09-09T06:31:22;98368.16;;;18.89;96.84
14120;BME280;7138;49.246;9.100;2022-09-09T06:33:49;98374.41;;;18.85;96.76
14120;BME280;7138;49.246;9.100;2022-09-09T06:36:18;98368.06;;;18.91;96.19
14120;BME280;7138;49.246;9.100;2022-09-09T06:38:45;98366.03;;;18.99;94.92
14120;BME280;7138;49.246;9.100;2022-09-09T06:41:14;98366.56;;;19.07;95.52
14120;BME280;7138;49.246;9.100;2022-09-09T06:43:42;98374.19;;;19.13;94.61
14120;BME280;7138;49.246;9.100;2022-09-09T06:46:12;98373.94;;;19.19;92.88
14120;BME280;7138;49.246;9.100;2022-09-09T06:48:38;98376.66;;;19.16;93.08
14120;BME280;7138;49.246;9.100;2022-09-09T06:51:08;98373.75;;;19.24;92.90
14120;BME280;7138;49.246;9.100;2022-09-09T06:53:36;98374.34;;;19.30;90.90
14120;BME280;7138;49.246;9.100;2022-09-09T06:56:20;98371.41;;;19.39;90.65
14120;BME280;7138;49.246;9.100;2022-09-09T06:58:49;98375.44;;;19.46;90.43
14120;BME280;7138;49.246;9.100;2022-09-09T07:01:17;98377.69;;;19.55;89.72
14120;BME280;7138;49.246;9.100;2022-09-09T07:03:47;98376.44;;;19.64;89.03
14120;BME280;7138;49.246;9.100;2022-09-09T07:06:16;98376.91;;;19.74;89.12
14120;BME280;7138;49.246;9.100;2022-09-09T07:08:49;98377.50;;;19.80;88.15
14120;BME280;7138;49.246;9.100;2022-09-09T07:11:16;98371.88;;;19.89;88.75
14120;BME280;7138;49.246;9.100;2022-09-09T07:13:42;98376.13;;;19.92;87.68
14120;BME280;7138;49.246;9.100;2022-09-09T07:16:12;98366.44;;;19.94;88.56
14120;BME280;7138;49.246;9.100;2022-09-09T07:18:39;98373.91;;;20.03;86.65
14120;BME280;7138;49.246;9.100;2022-09-09T07:21:09;98375.59;;;20.04;87.19
14120;BME280;7138;49.246;9.100;2022-09-09T07:23:35;98380.56;;;20.10;86.71
14120;BME280;7138;49.246;9.100;2022-09-09T07:26:02;98381.09;;;20.18;86.31
14120;BME280;7138;49.246;9.100;2022-09-09T07:28:28;98381.63;;;20.26;86.58
14120;BME280;7138;49.246;9.100;2022-09-09T07:31:00;98374.63;;;20.25;86.48
14120;BME280;7138;49.246;9.100;2022-09-09T07:33:32;98384.13;;;20.29;86.07
14120;BME280;7138;49.246;9.100;2022-09-09T07:36:06;98384.56;;;20.39;86.11
14120;BME280;7138;49.246;9.100;2022-09-09T07:38:37;98378.41;;;20.58;86.71
14120;BME280;7138;49.246;9.100;2022-09-09T07:41:05;98383.22;;;20.86;87.52
14120;BME280;7138;49.246;9.100;2022-09-09T07:43:32;98391.59;;;21.13;85.17
14120;BME280;7138;49.246;9.100;2022-09-09T07:46:00;98384.69;;;21.29;82.21
14120;BME280;7138;49.246;9.100;2022-09-09T07:48:30;98381.44;;;21.41;81.16
14120;BME280;7138;49.246;9.100;2022-09-09T07:51:09;98392.47;;;21.66;81.48
14120;BME280;7138;49.246;9.100;2022-09-09T07:53:37;98377.75;;;21.79;81.71
14120;BME280;7138;49.246;9.100;2022-09-09T07:56:06;98372.16;;;21.86;80.57
14120;BME280;7138;49.246;9.100;2022-09-09T07:58:32;98372.72;;;21.92;80.29
14120;BME280;7138;49.246;9.100;2022-09-09T08:00:58;98367.31;;;22.12;81.15
14120;BME280;7138;49.246;9.100;2022-09-09T08:03:24;98381.50;;;22.10;78.83
14120;BME280;7138;49.246;9.100;2022-09-09T08:05:52;98377.84;;;22.12;79.22
14120;BME280;7138;49.246;9.100;2022-09-09T08:08:17;98395.66;;;22.07;79.07
14120;BME280;7138;49.246;9.100;2022-09-09T08:10:43;98398.84;;;21.97;79.16
14120;BME280;7138;49.246;9.100;2022-09-09T08:13:09;98371.34;;;21.85;80.25
14120;BME280;7138;49.246;9.100;2022-09-09T08:15:35;98402.41;;;22.13;81.02
14120;BME280;7138;49.246;9.100;2022-09-09T08:18:01;98381.66;;;22.22;80.05
14120;BME280;7138;49.246;9.100;2022-09-09T08:20:29;98391.97;;;22.27;79.18
14120;BME280;7138;49.246;9.100;2022-09-09T08:22:56;98395.53;;;22.26;79.29
14120;BME280;7138;49.246;9.100;2022-09-09T08:25:22;98389.72;;;22.37;79.04
14120;BME280;7138;49.246;9.100;2022-09-09T08:27:48;98383.84;;;22.47;78.58
14120;BME280;7138;49.246;9.100;2022-09-09T08:30:14;98388.47;;;22.59;76.77
14120;BME280;7138;49.246;9.100;2022-09-09T08:32:40;98383.69;;;22.67;76.37
14120;BME280;7138;49.246;9.100;2022-09-09T08:35:07;98378.72;;;22.77;76.64
14120;BME280;7138;49.246;9.100;2022-09-09T08:37:33;98386.56;;;22.78;76.49
14120;BME280;7138;49.246;9.100;2022-09-09T08:40:01;98397.03;;;22.80;76.01
14120;BME280;7138;49.246;9.100;2022-09-09T08:42:38;98405.91;;;22.79;75.62
14120;BME280;7138;49.246;9.100;2022-09-09T08:45:31;98403.06;;;22.66;75.44
14120;BME280;7138;49.246;9.100;2022-09-09T08:48:36;98409.97;;;22.52;75.42
14120;BME280;7138;49.246;9.100;2022-09-09T08:51:04;98405.47;;;22.54;75.71
14120;BME280;7138;49.246;9.100;2022-09-09T08:53:41;98397.28;;;22.75;77.84
14120;BME280;7138;49.246;9.100;2022-09-09T08:56:14;98388.94;;;22.99;75.41
14120;BME280;7138;49.246;9.100;2022-09-09T08:58:47;98376.03;;;23.10;76.61
14120;BME280;7138;49.246;9.100;2022-09-09T09:01:42;98387.25;;;23.45;74.37
14120;BME280;7138;49.246;9.100;2022-09-09T09:04:30;98389.41;;;23.68;75.31
14120;BME280;7138;49.246;9.100;2022-09-09T09:07:11;98382.69;;;23.92;75.25
14120;BME280;7138;49.246;9.100;2022-09-09T09:09:49;98382.91;;;24.17;71.95
14120;BME280;7138;49.246;9.100;2022-09-09T09:12:23;98389.25;;;24.15;70.29
14120;BME280;7138;49.246;9.100;2022-09-09T09:14:50;98387.78;;;23.95;70.65
14120;BME280;7138;49.246;9.100;2022-09-09T09:17:19;98387.25;;;23.74;70.36
14120;BME280;7138;49.246;9.100;2022-09-09T09:19:48;98392.28;;;23.49;70.08
14120;BME280;7138;49.246;9.100;2022-09-09T09:22:19;98383.16;;;23.39;72.82
14120;BME280;7138;49.246;9.100;2022-09-09T09:24:53;98385.81;;;23.39;71.65
14120;BME280;7138;49.246;9.100;2022-09-09T09:27:32;98389.97;;;23.43;72.50
14120;BME280;7138;49.246;9.100;2022-09-09T09:30:01;98393.38;;;23.45;73.46
14120;BME280;7138;49.246;9.100;2022-09-09T09:32:33;98405.47;;;23.18;72.96
14120;BME280;7138;49.246;9.100;2022-09-09T09:35:06;98396.09;;;22.81;76.95
14120;BME280;7138;49.246;9.100;2022-09-09T09:37:35;98409.28;;;22.48;79.23
14120;BME280;7138;49.246;9.100;2022-09-09T09:40:12;98427.66;;;22.00;79.24
14120;BME280;7138;49.246;9.100;2022-09-09T09:42:49;98450.56;;;21.09;80.58
14120;BME280;7138;49.246;9.100;2022-09-09T09:45:27;98419.44;;;20.61;79.31
14120;BME280;7138;49.246;9.100;2022-09-09T09:48:00;98411.34;;;20.06;80.61
14120;BME280;7138;49.246;9.100;2022-09-09T09:50:28;98408.94;;;19.82;85.15
14120;BME280;7138;49.246;9.100;2022-09-09T09:52:56;98400.25;;;19.59;86.62
14120;BME280;7138;49.246;9.100;2022-09-09T09:55:23;98394.75;;;19.45;87.79
14120;BME280;7138;49.246;9.100;2022-09-09T09:57:52;98391.63;;;19.57;91.20
14120;BME280;7138;49.246;9.100;2022-09-09T10:00:21;98387.81;;;19.64;92.46
14120;BME280;7138;49.246;9.100;2022-09-09T10:02:49;98390.84;;;19.76;92.26
14120;BME280;7138;49.246;9.100;2022-09-09T10:05:20;98383.69;;;19.99;93.24
14120;BME280;7138;49.246;9.100;2022-09-09T10:07:47;98375.72;;;20.21;94.94
14120;BME280;7138;49.246;9.100;2022-09-09T10:10:45;98378.97;;;20.46;98.10
14120;BME280;7138;49.246;9.100;2022-09-09T10:13:24;98379.81;;;20.65;90.65
14120;BME280;7138;49.246;9.100;2022-09-09T10:16:08;98384.84;;;20.89;94.04
14120;BME280;7138;49.246;9.100;2022-09-09T10:18:52;98391.59;;;21.13;94.77
14120;BME280;7138;49.246;9.100;2022-09-09T10:21:44;98386.56;;;21.44;98.33
14120;BME280;7138;49.246;9.100;2022-09-09T10:24:46;98383.31;;;21.56;90.35
14120;BME280;7138;49.246;9.100;2022-09-09T10:27:23;98381.75;;;21.88;95.33
14120;BME280;7138;49.246;9.100;2022-09-09T10:30:07;98386.59;;;22.13;91.42
14120;BME280;7138;49.246;9.100;2022-09-09T10:32:45;98378.59;;;22.14;84.55
14120;BME280;7138;49.246;9.100;2022-09-09T10:35:24;98382.78;;;22.18;81.52
14120;BME280;7138;49.246;9.100;2022-09-09T10:38:27;98378.75;;;22.11;77.32
14120;BME280;7138;49.246;9.100;2022-09-09T10:41:15;98388.59;;;22.08;78.51
14120;BME280;7138;49.246;9.100;2022-09-09T10:44:24;98379.78;;;22.09;73.16
14120;BME280;7138;49.246;9.100;2022-09-09T10:47:31;98374.25;;;22.30;76.11
14120;BME280;7138;49.246;9.100;2022-09-09T10:50:28;98369.16;;;22.43;76.91
14120;BME280;7138;49.246;9.100;2022-09-09T10:53:09;98367.16;;;22.64;76.41
14120;BME280;7138;49.246;9.100;2022-09-09T10:55:41;98370.59;;;22.81;76.13
14120;BME280;7138;49.246;9.100;2022-09-09T10:58:14;98363.44;;;22.83;72.79
14120;BME280;7138;49.246;9.100;2022-09-09T11:00:47;98375.34;;;22.91;71.57
14120;BME280;7138;49.246;9.100;2022-09-09T11:03:21;98360.78;;;23.15;73.47
14120;BME280;7138;49.246;9.100;2022-09-09T11:05:55;98367.59;;;23.19;69.17
14120;BME280;7138;49.246;9.100;2022-09-09T11:08:26;98368.94;;;23.26;72.04
14120;BME280;7138;49.246;9.100;2022-09-09T11:10:59;98372.75;;;23.36;68.91
14120;BME280;7138;49.246;9.100;2022-09-09T11:13:38;98361.03;;;23.42;68.74
14120;BME280;7138;49.246;9.100;2022-09-09T11:16:20;98372.44;;;23.42;67.75
14120;BME280;7138;49.246;9.100;2022-09-09T11:18:50;98373.13;;;23.46;68.44
14120;BME280;7138;49.246;9.100;2022-09-09T11:21:21;98367.34;;;23.39;67.97
14120;BME280;7138;49.246;9.100;2022-09-09T11:23:53;98368.69;;;23.30;67.81
14120;BME280;7138;49.246;9.100;2022-09-09T11:26:30;98379.75;;;23.37;69.18
14120;BME280;7138;49.246;9.100;2022-09-09T11:29:21;98375.91;;;23.27;68.73
14120;BME280;7138;49.246;9.100;2022-09-09T11:32:12;98379.69;;;22.92;68.88
14120;BME280;7138;49.246;9.100;2022-09-09T11:34:54;98377.06;;;22.76;69.79
14120;BME280;7138;49.246;9.100;2022-09-09T11:38:00;98372.88;;;22.88;71.64
14120;BME280;7138;49.246;9.100;2022-09-09T11:40:33;98368.19;;;22.93;72.50
14120;BME280;7138;49.246;9.100;2022-09-09T11:43:09;98373.97;;;22.99;69.07
14120;BME280;7138;49.246;9.100;2022-09-09T11:45:39;98379.19;;;23.01;68.32
14120;BME280;7138;49.246;9.100;2022-09-09T11:48:25;98373.75;;;23.04;68.38
14120;BME280;7138;49.246;9.100;2022-09-09T11:51:04;98377.81;;;22.94;68.11
14120;BME280;7138;49.246;9.100;2022-09-09T11:53:31;98372.72;;;23.06;71.21
14120;BME280;7138;49.246;9.100;2022-09-09T11:56:09;98358.22;;;23.13;68.93
14120;BME280;7138;49.246;9.100;2022-09-09T11:58:43;98354.59;;;23.00;67.53
14120;BME280;7138;49.246;9.100;2022-09-09T12:01:30;98353.91;;;23.12;67.57
14120;BME280;7138;49.246;9.100;2022-09-09T12:04:29;98352.13;;;23.13;66.79
14120;BME280;7138;49.246;9.100;2022-09-09T12:07:01;98343.31;;;23.28;69.35
14120;BME280;7138;49.246;9.100;2022-09-09T12:09:44;98342.66;;;23.40;67.86
14120;BME280;7138;49.246;9.100;2022-09-09T12:12:29;98328.25;;;23.60;70.53
14120;BME280;7138;49.246;9.100;2022-09-09T12:15:18;98336.59;;;23.68;67.48
14120;BME280;7138;49.246;9.100;2022-09-09T12:17:48;98327.03;;;23.65;66.71
14120;BME280;7138;49.246;9.100;2022-09-09T12:20:18;98326.78;;;23.56;66.98
14120;BME280;7138;49.246;9.100;2022-09-09T12:23:05;98322.50;;;23.53;67.43
14120;BME280;7138;49.246;9.100;2022-09-09T12:26:00;98323.94;;;23.59;67.16
14120;BME280;7138;49.246;9.100;2022-09-09T12:28:48;98311.94;;;23.53;65.99
14120;BME280;7138;49.246;9.100;2022-09-09T12:31:24;98326.78;;;23.56;66.19
14120;BME280;7138;49.246;9.100;2022-09-09T12:33:52;98327.94;;;23.50;65.55
14120;BME280;7138;49.246;9.100;2022-09-09T12:36:22;98321.84;;;23.50;66.59
14120;BME280;7138;49.246;9.100;2022-09-09T12:38:51;98322.13;;;23.59;65.88
14120;BME280;7138;49.246;9.100;2022-09-09T12:41:24;98317.72;;;23.60;65.87
14120;BME280;7138;49.246;9.100;2022-09-09T12:43:50;98316.47;;;23.65;64.83
14120;BME280;7138;49.246;9.100;2022-09-09T12:46:28;98331.22;;;23.83;65.76
14120;BME280;7138;49.246;9.100;2022-09-09T12:48:58;98324.66;;;23.90;66.21
14120;BME280;7138;49.246;9.100;2022-09-09T12:51:28;98323.72;;;24.06;63.83
14120;BME280;7138;49.246;9.100;2022-09-09T12:53:58;98327.88;;;24.10;63.49
14120;BME280;7138;49.246;9.100;2022-09-09T12:56:27;98321.75;;;24.23;65.08
14120;BME280;7138;49.246;9.100;2022-09-09T12:58:57;98322.72;;;24.36;63.45
14120;BME280;7138;49.246;9.100;2022-09-09T13:01:27;98333.16;;;24.38;63.34
14120;BME280;7138;49.246;9.100;2022-09-09T13:03:54;98324.22;;;24.26;62.58
14120;BME280;7138;49.246;9.100;2022-09-09T13:06:22;98327.03;;;24.23;63.31
14120;BME280;7138;49.246;9.100;2022-09-09T13:08:49;98331.88;;;24.31;63.61
14120;BME280;7138;49.246;9.100;2022-09-09T13:11:20;98301.47;;;24.24;62.91
14120;BME280;7138;49.246;9.100;2022-09-09T13:13:52;98316.94;;;24.30;62.05
14120;BME280;7138;49.246;9.100;2022-09-09T13:16:23;98297.50;;;24.31;62.07
14120;BME280;7138;49.246;9.100;2022-09-09T13:18:51;98309.31;;;24.39;63.56
14120;BME280;7138;49.246;9.100;2022-09-09T13:21:18;98318.94;;;24.40;63.01
14120;BME280;7138;49.246;9.100;2022-09-09T13:23:49;98310.91;;;24.42;62.80
14120;BME280;7138;49.246;9.100;2022-09-09T13:26:25;98312.22;;;24.21;61.27
14120;BME280;7138;49.246;9.100;2022-09-09T13:28:52;98319.78;;;24.27;62.90
14120;BME280;7138;49.246;9.100;2022-09-09T13:31:22;98312.03;;;24.38;63.51
14120;BME280;7138;49.246;9.100;2022-09-09T13:33:48;98313.44;;;24.29;62.01
14120;BME280;7138;49.246;9.100;2022-09-09T13:36:14;98312.59;;;24.29;64.45
14120;BME280;7138;49.246;9.100;2022-09-09T13:38:53;98318.16;;;24.10;63.08